sensor_id;sensor_type;location;lat;lon;timestamp;temperature;humidity
7654;DHT22;3869;48.406;10.774;2023-12-28T00:00:31;2.80;99.90
7654;DHT22;3869;48.406;10.774;2023-12-28T00:02:59;2.80;99.90
7654;DHT22;3869;48.406;10.774;2023-12-28T00:05:27;2.70;99.90
7654;DHT22;3869;48.406;10.774;2023-12-28T00:07:55;2.70;99.90
7654;DHT22;3869;48.406;10.774;2023-12-28T00:10:26;2.70;99.90
7654;DHT22;3869;48.406;10.774;2023-12-28T00:12:55;2.70;99.90
7654;DHT22;3869;48.406;10.774;2023-12-28T00:15:23;2.80;99.90
7654;DHT22;3869;48.406;10.774;2023-12-28T00:17:52;2.80;99.90
7654;DHT22;3869;48.406;10.774;2023-12-28T00:20:20;2.90;99.90
7654;DHT22;3869;48.406;10.774;2023-12-28T00:22:48;2.90;99.90
7654;DHT22;3869;48.406;10.774;2023-12-28T00:25:16;2.90;99.90
7654;DHT22;3869;48.406;10.774;2023-12-28T00:27:43;2.90;99.90
7654;DHT22;3869;48.406;10.774;2023-12-28T00:30:14;3.00;99.90
7654;DHT22;3869;48.406;10.774;2023-12-28T00:32:44;3.00;99.90
7654;DHT22;3869;48.406;10.774;2023-12-28T00:35:13;3.00;99.90
7654;DHT22;3869;48.406;10.774;2023-12-28T00:37:41;3.00;99.90
7654;DHT22;3869;48.406;10.774;2023-12-28T00:40:10;3.00;99.90
7654;DHT22;3869;48.406;10.774;2023-12-28T00:42:38;3.00;99.90
7654;DHT22;3869;48.406;10.774;2023-12-28T00:45:08;3.10;99.90
7654;DHT22;3869;48.406;10.774;2023-12-28T00:47:38;3.10;99.90
7654;DHT22;3869;48.406;10.774;2023-12-28T00:50:06;3.10;99.90
7654;DHT22;3869;48.406;10.774;2023-12-28T00:52:34;3.10;99.90
7654;DHT22;3869;48.406;10.774;2023-12-28T00:55:03;3.10;99.90
7654;DHT22;3869;48.406;10.774;2023-12-28T00:57:31;3.20;99.90
7654;DHT22;3869;48.406;10.774;2023-12-28T00:59:59;3.30;99.90
7654;DHT22;3869;48.406;10.774;2023-12-28T01:02:28;3.20;99.90
7654;DHT22;3869;48.406;10.774;2023-12-28T01:04:57;3.20;99.90
7654;DHT22;3869;48.406;10.774;2023-12-28T01:07:25;3.20;99.90
7654;DHT22;3869;48.406;10.774;2023-12-28T01:09:53;3.20;99.90
7654;DHT22;3869;48.406;10.774;2023-12-28T01:12:21;3.20;99.90
7654;DHT22;3869;48.406;10.774;2023-12-28T01:14:49;3.20;99.90
7654;DHT22;3869;48.406;10.774;2023-12-28T01:17:17;3.20;99.90
7654;DHT22;3869;48.406;10.774;2023-12-28T01:19:46;3.20;99.90
7654;DHT22;3869;48.406;10.774;2023-12-28T01:22:16;3.20;99.90
7654;DHT22;3869;48.406;10.774;2023-12-28T01:24:46;3.20;99.90
7654;DHT22;3869;48.406;10.774;2023-12-28T01:27:16;3.20;99.90
7654;DHT22;3869;48.406;10.774;2023-12-28T01:29:44;3.20;99.90
7654;DHT22;3869;48.406;10.774;2023-12-28T01:32:12;3.10;99.90
7654;DHT22;3869;48.406;10.774;2023-12-28T01:34:40;3.10;99.90
7654;DHT22;3869;48.406;10.774;2023-12-28T01:37:09;3.10;99.90
7654;DHT22;3869;48.406;10.774;2023-12-28T01:39:38;3.20;99.90
7654;DHT22;3869;48.406;10.774;2023-12-28T01:42:07;3.20;99.90
7654;DHT22;3869;48.406;10.774;2023-12-28T01:44:35;3.20;99.90
7654;DHT22;3869;48.406;10.774;2023-12-28T01:47:03;3.30;99.90
7654;DHT22;3869;48.406;10.774;2023-12-28T01:49:32;3.30;99.90
7654;DHT22;3869;48.406;10.774;2023-12-28T01:52:01;3.30;99.90
7654;DHT22;3869;48.406;10.774;2023-12-28T01:54:30;3.30;99.90
7654;DHT22;3869;48.406;10.774;2023-12-28T01:56:59;3.40;99.90
7654;DHT22;3869;48.406;10.774;2023-12-28T01:59:28;3.40;99.90
7654;DHT22;3869;48.406;10.774;2023-12-28T02:01:56;3.30;99.90
7654;DHT22;3869;48.406;10.774;2023-12-28T02:04:24;3.40;99.90
7654;DHT22;3869;48.406;10.774;2023-12-28T02:06:56;3.40;99.90
7654;DHT22;3869;48.406;10.774;2023-12-28T02:09:25;3.40;99.90
7654;DHT22;3869;48.406;10.774;2023-12-28T02:11:53;3.40;99.90
7654;DHT22;3869;48.406;10.774;2023-12-28T02:14:23;3.50;99.90
7654;DHT22;3869;48.406;10.774;2023-12-28T02:16:57;3.40;99.90
7654;DHT22;3869;48.406;10.774;2023-12-28T02:19:32;3.40;99.90
7654;DHT22;3869;48.406;10.774;2023-12-28T02:22:07;3.40;99.90
7654;DHT22;3869;48.406;10.774;2023-12-28T02:27:29;3.30;99.90
7654;DHT22;3869;48.406;10.774;2023-12-28T02:29:57;3.30;99.90
7654;DHT22;3869;48.406;10.774;2023-12-28T02:32:32;3.30;99.90
7654;DHT22;3869;48.406;10.774;2023-12-28T02:35:10;3.30;99.90
7654;DHT22;3869;48.406;10.774;2023-12-28T02:37:43;3.30;99.90
7654;DHT22;3869;48.406;10.774;2023-12-28T02:40:15;3.30;99.90
7654;DHT22;3869;48.406;10.774;2023-12-28T02:42:45;3.30;99.90
7654;DHT22;3869;48.406;10.774;2023-12-28T02:45:13;3.30;99.90
7654;DHT22;3869;48.406;10.774;2023-12-28T02:47:41;3.30;99.90
7654;DHT22;3869;48.406;10.774;2023-12-28T02:50:09;3.30;99.90
7654;DHT22;3869;48.406;10.774;2023-12-28T02:52:37;3.20;99.90
7654;DHT22;3869;48.406;10.774;2023-12-28T02:55:06;3.20;99.90
7654;DHT22;3869;48.406;10.774;2023-12-28T02:57:34;3.20;99.90
7654;DHT22;3869;48.406;10.774;2023-12-28T03:00:07;3.20;99.90
7654;DHT22;3869;48.406;10.774;2023-12-28T03:02:36;3.20;99.90
7654;DHT22;3869;48.406;10.774;2023-12-28T03:05:05;3.20;99.90
7654;DHT22;3869;48.406;10.774;2023-12-28T03:07:34;3.20;99.90
7654;DHT22;3869;48.406;10.774;2023-12-28T03:10:02;3.20;99.90
7654;DHT22;3869;48.406;10.774;2023-12-28T03:12:30;3.20;99.90
7654;DHT22;3869;48.406;10.774;2023-12-28T03:14:59;3.20;99.90
7654;DHT22;3869;48.406;10.774;2023-12-28T03:17:28;3.20;99.90
7654;DHT22;3869;48.406;10.774;2023-12-28T03:19:58;3.20;99.90
7654;DHT22;3869;48.406;10.774;2023-12-28T03:22:26;3.20;99.90
7654;DHT22;3869;48.406;10.774;2023-12-28T03:24:54;3.10;99.90
7654;DHT22;3869;48.406;10.774;2023-12-28T03:27:22;3.10;99.90
7654;DHT22;3869;48.406;10.774;2023-12-28T03:29:50;3.00;99.90
7654;DHT22;3869;48.406;10.774;2023-12-28T03:32:18;2.90;99.90
7654;DHT22;3869;48.406;10.774;2023-12-28T03:34:48;3.00;99.90
7654;DHT22;3869;48.406;10.774;2023-12-28T03:37:16;2.90;99.90
7654;DHT22;3869;48.406;10.774;2023-12-28T03:39:44;2.80;99.90
7654;DHT22;3869;48.406;10.774;2023-12-28T03:42:13;2.80;99.90
7654;DHT22;3869;48.406;10.774;2023-12-28T03:44:41;2.90;99.90
7654;DHT22;3869;48.406;10.774;2023-12-28T03:47:10;2.90;99.90
7654;DHT22;3869;48.406;10.774;2023-12-28T03:49:39;3.00;99.90
7654;DHT22;3869;48.406;10.774;2023-12-28T03:52:08;3.00;99.90
7654;DHT22;3869;48.406;10.774;2023-12-28T03:54:37;3.10;99.90
7654;DHT22;3869;48.406;10.774;2023-12-28T03:57:05;3.10;99.90
7654;DHT22;3869;48.406;10.774;2023-12-28T03:59:33;3.20;99.90
7654;DHT22;3869;48.406;10.774;2023-12-28T04:02:01;3.20;99.90
7654;DHT22;3869;48.406;10.774;2023-12-28T04:04:29;3.30;99.90
7654;DHT22;3869;48.406;10.774;2023-12-28T04:06:57;3.30;99.90
7654;DHT22;3869;48.406;10.774;2023-12-28T04:09:27;3.30;99.90
7654;DHT22;3869;48.406;10.774;2023-12-28T04:11:55;3.40;99.90
7654;DHT22;3869;48.406;10.774;2023-12-28T04:14:23;3.40;99.90
7654;DHT22;3869;48.406;10.774;2023-12-28T04:16:51;3.50;99.90
7654;DHT22;3869;48.406;10.774;2023-12-28T04:19:19;3.60;99.90
7654;DHT22;3869;48.406;10.774;2023-12-28T04:21:47;3.60;99.90
7654;DHT22;3869;48.406;10.774;2023-12-28T04:24:15;3.60;99.90
7654;DHT22;3869;48.406;10.774;2023-12-28T04:26:45;3.60;99.90
7654;DHT22;3869;48.406;10.774;2023-12-28T04:29:13;3.60;99.90
7654;DHT22;3869;48.406;10.774;2023-12-28T04:31:41;3.70;99.90
7654;DHT22;3869;48.406;10.774;2023-12-28T04:34:09;3.70;99.90
7654;DHT22;3869;48.406;10.774;2023-12-28T04:36:40;3.70;99.90
7654;DHT22;3869;48.406;10.774;2023-12-28T04:39:08;3.70;99.90
7654;DHT22;3869;48.406;10.774;2023-12-28T04:41:36;3.70;99.90
7654;DHT22;3869;48.406;10.774;2023-12-28T04:44:06;3.70;99.90
7654;DHT22;3869;48.406;10.774;2023-12-28T04:46:37;3.70;99.90
7654;DHT22;3869;48.406;10.774;2023-12-28T04:49:06;3.70;99.90
7654;DHT22;3869;48.406;10.774;2023-12-28T04:51:35;3.70;99.90
7654;DHT22;3869;48.406;10.774;2023-12-28T04:54:03;3.70;99.90
7654;DHT22;3869;48.406;10.774;2023-12-28T04:56:31;3.70;99.90
7654;DHT22;3869;48.406;10.774;2023-12-28T04:58:59;3.80;99.90
7654;DHT22;3869;48.406;10.774;2023-12-28T05:01:28;3.80;99.90
7654;DHT22;3869;48.406;10.774;2023-12-28T05:03:58;3.80;99.90
7654;DHT22;3869;48.406;10.774;2023-12-28T05:06:28;3.70;99.90
7654;DHT22;3869;48.406;10.774;2023-12-28T05:08:56;3.70;99.90
7654;DHT22;3869;48.406;10.774;2023-12-28T05:11:24;3.60;99.90
7654;DHT22;3869;48.406;10.774;2023-12-28T05:13:52;3.60;99.90
7654;DHT22;3869;48.406;10.774;2023-12-28T05:16:21;3.60;99.90
7654;DHT22;3869;48.406;10.774;2023-12-28T05:18:50;3.70;99.90
7654;DHT22;3869;48.406;10.774;2023-12-28T05:21:18;3.70;99.90
7654;DHT22;3869;48.406;10.774;2023-12-28T05:23:47;3.70;99.90
7654;DHT22;3869;48.406;10.774;2023-12-28T05:26:15;3.70;99.90
7654;DHT22;3869;48.406;10.774;2023-12-28T05:28:43;3.80;99.90
7654;DHT22;3869;48.406;10.774;2023-12-28T05:31:11;3.70;99.90
7654;DHT22;3869;48.406;10.774;2023-12-28T05:33:40;3.70;99.90
7654;DHT22;3869;48.406;10.774;2023-12-28T05:36:10;3.70;99.90
7654;DHT22;3869;48.406;10.774;2023-12-28T05:38:38;3.80;99.90
7654;DHT22;3869;48.406;10.774;2023-12-28T05:41:06;3.70;99.90
7654;DHT22;3869;48.406;10.774;2023-12-28T05:43:34;3.70;99.90
7654;DHT22;3869;48.406;10.774;2023-12-28T05:46:02;3.70;99.90
7654;DHT22;3869;48.406;10.774;2023-12-28T05:48:30;3.70;99.90
7654;DHT22;3869;48.406;10.774;2023-12-28T05:50:58;3.70;99.90
7654;DHT22;3869;48.406;10.774;2023-12-28T05:53:28;3.70;99.90
7654;DHT22;3869;48.406;10.774;2023-12-28T05:55:56;3.70;99.90
7654;DHT22;3869;48.406;10.774;2023-12-28T05:58:24;3.70;99.90
7654;DHT22;3869;48.406;10.774;2023-12-28T06:00:52;3.70;99.90
7654;DHT22;3869;48.406;10.774;2023-12-28T06:03:21;3.70;99.90
7654;DHT22;3869;48.406;10.774;2023-12-28T06:05:49;3.60;99.90
7654;DHT22;3869;48.406;10.774;2023-12-28T06:08:17;3.60;99.90
7654;DHT22;3869;48.406;10.774;2023-12-28T06:10:46;3.60;99.90
7654;DHT22;3869;48.406;10.774;2023-12-28T06:13:14;3.60;99.90
7654;DHT22;3869;48.406;10.774;2023-12-28T06:15:42;3.60;99.90
7654;DHT22;3869;48.406;10.774;2023-12-28T06:18:10;3.50;99.90
7654;DHT22;3869;48.406;10.774;2023-12-28T06:20:39;3.50;99.90
7654;DHT22;3869;48.406;10.774;2023-12-28T06:23:07;3.50;99.90
7654;DHT22;3869;48.406;10.774;2023-12-28T06:25:35;3.60;99.90
7654;DHT22;3869;48.406;10.774;2023-12-28T06:28:05;3.60;99.90
7654;DHT22;3869;48.406;10.774;2023-12-28T06:30:33;3.60;99.90
7654;DHT22;3869;48.406;10.774;2023-12-28T06:33:02;3.60;99.90
7654;DHT22;3869;48.406;10.774;2023-12-28T06:35:30;3.60;99.90
7654;DHT22;3869;48.406;10.774;2023-12-28T06:37:58;3.50;99.90
7654;DHT22;3869;48.406;10.774;2023-12-28T06:40:26;3.50;99.90
7654;DHT22;3869;48.406;10.774;2023-12-28T06:42:54;3.50;99.90
7654;DHT22;3869;48.406;10.774;2023-12-28T06:45:24;3.50;99.90
7654;DHT22;3869;48.406;10.774;2023-12-28T06:47:55;3.50;99.90
7654;DHT22;3869;48.406;10.774;2023-12-28T06:50:23;3.60;99.90
7654;DHT22;3869;48.406;10.774;2023-12-28T06:52:51;3.60;99.90
7654;DHT22;3869;48.406;10.774;2023-12-28T06:55:19;3.60;99.90
7654;DHT22;3869;48.406;10.774;2023-12-28T06:57:47;3.60;99.90
7654;DHT22;3869;48.406;10.774;2023-12-28T07:00:16;3.60;99.90
7654;DHT22;3869;48.406;10.774;2023-12-28T07:02:46;3.60;99.90
7654;DHT22;3869;48.406;10.774;2023-12-28T07:05:14;3.50;99.90
7654;DHT22;3869;48.406;10.774;2023-12-28T07:07:42;3.60;99.90
7654;DHT22;3869;48.406;10.774;2023-12-28T07:10:10;3.60;99.90
7654;DHT22;3869;48.406;10.774;2023-12-28T07:12:38;3.50;99.90
7654;DHT22;3869;48.406;10.774;2023-12-28T07:15:06;3.50;99.90
7654;DHT22;3869;48.406;10.774;2023-12-28T07:17:37;3.50;99.90
7654;DHT22;3869;48.406;10.774;2023-12-28T07:20:08;3.60;99.90
7654;DHT22;3869;48.406;10.774;2023-12-28T07:22:38;3.60;99.90
7654;DHT22;3869;48.406;10.774;2023-12-28T07:25:06;3.60;99.90
7654;DHT22;3869;48.406;10.774;2023-12-28T07:27:35;3.60;99.90
7654;DHT22;3869;48.406;10.774;2023-12-28T07:30:04;3.60;99.90
7654;DHT22;3869;48.406;10.774;2023-12-28T07:32:34;3.60;99.90
7654;DHT22;3869;48.406;10.774;2023-12-28T07:35:02;3.60;99.90
7654;DHT22;3869;48.406;10.774;2023-12-28T07:37:32;3.70;99.90
7654;DHT22;3869;48.406;10.774;2023-12-28T07:40:00;3.70;99.90
7654;DHT22;3869;48.406;10.774;2023-12-28T07:42:28;3.70;99.90
7654;DHT22;3869;48.406;10.774;2023-12-28T07:44:56;3.70;99.90
7654;DHT22;3869;48.406;10.774;2023-12-28T07:47:24;3.70;99.90
7654;DHT22;3869;48.406;10.774;2023-12-28T07:49:53;3.70;99.90
7654;DHT22;3869;48.406;10.774;2023-12-28T07:52:21;3.70;99.90
7654;DHT22;3869;48.406;10.774;2023-12-28T07:54:51;3.80;99.90
7654;DHT22;3869;48.406;10.774;2023-12-28T07:57:19;3.90;99.90
7654;DHT22;3869;48.406;10.774;2023-12-28T07:59:47;4.00;99.90
7654;DHT22;3869;48.406;10.774;2023-12-28T08:02:15;4.00;99.90
7654;DHT22;3869;48.406;10.774;2023-12-28T08:04:46;4.00;99.90
7654;DHT22;3869;48.406;10.774;2023-12-28T08:07:15;4.10;99.90
7654;DHT22;3869;48.406;10.774;2023-12-28T08:09:43;4.20;99.90
7654;DHT22;3869;48.406;10.774;2023-12-28T08:12:13;4.20;99.90
7654;DHT22;3869;48.406;10.774;2023-12-28T08:14:41;4.30;99.90
7654;DHT22;3869;48.406;10.774;2023-12-28T08:17:09;4.40;99.90
7654;DHT22;3869;48.406;10.774;2023-12-28T08:19:37;4.50;99.90
7654;DHT22;3869;48.406;10.774;2023-12-28T08:22:05;4.50;99.90
7654;DHT22;3869;48.406;10.774;2023-12-28T08:24:33;4.60;99.90
7654;DHT22;3869;48.406;10.774;2023-12-28T08:27:03;4.60;99.90
7654;DHT22;3869;48.406;10.774;2023-12-28T08:29:33;4.70;99.90
7654;DHT22;3869;48.406;10.774;2023-12-28T08:32:01;4.80;99.90
7654;DHT22;3869;48.406;10.774;2023-12-28T08:34:29;4.90;99.90
7654;DHT22;3869;48.406;10.774;2023-12-28T08:36:58;4.90;99.90
7654;DHT22;3869;48.406;10.774;2023-12-28T08:39:26;5.10;99.90
7654;DHT22;3869;48.406;10.774;2023-12-28T08:41:55;5.20;99.90
7654;DHT22;3869;48.406;10.774;2023-12-28T08:44:23;5.30;99.90
7654;DHT22;3869;48.406;10.774;2023-12-28T08:46:53;5.40;99.90
7654;DHT22;3869;48.406;10.774;2023-12-28T08:49:21;5.50;99.90
7654;DHT22;3869;48.406;10.774;2023-12-28T08:51:50;5.60;99.90
7654;DHT22;3869;48.406;10.774;2023-12-28T08:54:18;5.70;99.90
7654;DHT22;3869;48.406;10.774;2023-12-28T08:56:46;5.80;99.90
7654;DHT22;3869;48.406;10.774;2023-12-28T08:59:19;6.00;99.90
7654;DHT22;3869;48.406;10.774;2023-12-28T09:01:47;6.20;99.90
7654;DHT22;3869;48.406;10.774;2023-12-28T09:04:16;6.30;99.90
7654;DHT22;3869;48.406;10.774;2023-12-28T09:06:45;6.40;99.90
7654;DHT22;3869;48.406;10.774;2023-12-28T09:09:13;6.60;99.90
7654;DHT22;3869;48.406;10.774;2023-12-28T09:11:41;6.70;99.90
7654;DHT22;3869;48.406;10.774;2023-12-28T09:14:09;6.80;99.90
7654;DHT22;3869;48.406;10.774;2023-12-28T09:16:37;7.00;99.90
7654;DHT22;3869;48.406;10.774;2023-12-28T09:19:06;7.10;99.90
7654;DHT22;3869;48.406;10.774;2023-12-28T09:21:35;7.20;99.90
7654;DHT22;3869;48.406;10.774;2023-12-28T09:24:05;7.30;99.90
7654;DHT22;3869;48.406;10.774;2023-12-28T09:26:33;7.40;99.90
7654;DHT22;3869;48.406;10.774;2023-12-28T09:29:02;7.50;99.90
7654;DHT22;3869;48.406;10.774;2023-12-28T09:31:29;7.50;99.90
7654;DHT22;3869;48.406;10.774;2023-12-28T09:33:58;7.60;99.90
7654;DHT22;3869;48.406;10.774;2023-12-28T09:36:26;7.70;99.90
7654;DHT22;3869;48.406;10.774;2023-12-28T09:38:56;7.70;99.90
7654;DHT22;3869;48.406;10.774;2023-12-28T09:41:26;7.80;99.90
7654;DHT22;3869;48.406;10.774;2023-12-28T09:44:00;7.90;99.90
7654;DHT22;3869;48.406;10.774;2023-12-28T09:46:33;7.90;99.90
7654;DHT22;3869;48.406;10.774;2023-12-28T09:49:02;8.00;99.90
7654;DHT22;3869;48.406;10.774;2023-12-28T09:51:31;8.10;99.90
7654;DHT22;3869;48.406;10.774;2023-12-28T09:54:01;8.10;99.90
7654;DHT22;3869;48.406;10.774;2023-12-28T09:56:31;8.20;99.90
7654;DHT22;3869;48.406;10.774;2023-12-28T09:58:59;8.30;99.90
7654;DHT22;3869;48.406;10.774;2023-12-28T10:01:29;8.40;99.90
7654;DHT22;3869;48.406;10.774;2023-12-28T10:03:57;8.50;99.90
7654;DHT22;3869;48.406;10.774;2023-12-28T10:06:25;8.60;99.90
7654;DHT22;3869;48.406;10.774;2023-12-28T10:08:53;8.60;99.90
7654;DHT22;3869;48.406;10.774;2023-12-28T10:11:23;8.70;99.90
7654;DHT22;3869;48.406;10.774;2023-12-28T10:13:53;8.70;99.90
7654;DHT22;3869;48.406;10.774;2023-12-28T10:16:22;8.70;99.90
7654;DHT22;3869;48.406;10.774;2023-12-28T10:18:50;8.80;99.90
7654;DHT22;3869;48.406;10.774;2023-12-28T10:21:20;8.80;99.90
7654;DHT22;3869;48.406;10.774;2023-12-28T10:23:48;8.90;99.90
7654;DHT22;3869;48.406;10.774;2023-12-28T10:26:18;8.90;99.90
7654;DHT22;3869;48.406;10.774;2023-12-28T10:28:47;8.90;99.90
7654;DHT22;3869;48.406;10.774;2023-12-28T10:31:15;9.00;99.90
7654;DHT22;3869;48.406;10.774;2023-12-28T10:33:44;9.00;99.90
7654;DHT22;3869;48.406;10.774;2023-12-28T10:36:15;9.10;99.90
7654;DHT22;3869;48.406;10.774;2023-12-28T10:38:44;9.10;99.70
7654;DHT22;3869;48.406;10.774;2023-12-28T10:41:14;9.10;99.50
7654;DHT22;3869;48.406;10.774;2023-12-28T10:43:50;9.20;99.70
7654;DHT22;3869;48.406;10.774;2023-12-28T10:46:25;9.20;99.50
7654;DHT22;3869;48.406;10.774;2023-12-28T10:48:58;9.20;99.40
7654;DHT22;3869;48.406;10.774;2023-12-28T10:51:27;9.20;99.20
7654;DHT22;3869;48.406;10.774;2023-12-28T10:54:06;9.30;99.20
7654;DHT22;3869;48.406;10.774;2023-12-28T10:56:44;9.30;98.90
7654;DHT22;3869;48.406;10.774;2023-12-28T10:59:21;9.30;98.80
7654;DHT22;3869;48.406;10.774;2023-12-28T11:01:55;9.40;98.80
7654;DHT22;3869;48.406;10.774;2023-12-28T11:04:29;9.40;98.80
7654;DHT22;3869;48.406;10.774;2023-12-28T11:07:00;9.40;98.40
7654;DHT22;3869;48.406;10.774;2023-12-28T11:09:31;9.40;98.50
7654;DHT22;3869;48.406;10.774;2023-12-28T11:12:01;9.40;98.50
7654;DHT22;3869;48.406;10.774;2023-12-28T11:14:33;9.40;98.60
7654;DHT22;3869;48.406;10.774;2023-12-28T11:17:01;9.40;98.10
7654;DHT22;3869;48.406;10.774;2023-12-28T11:19:31;9.40;98.30
7654;DHT22;3869;48.406;10.774;2023-12-28T11:22:02;9.40;98.20
7654;DHT22;3869;48.406;10.774;2023-12-28T11:24:31;9.40;98.10
7654;DHT22;3869;48.406;10.774;2023-12-28T11:27:00;9.40;98.00
7654;DHT22;3869;48.406;10.774;2023-12-28T11:29:31;9.40;98.10
7654;DHT22;3869;48.406;10.774;2023-12-28T11:31:59;9.40;98.20
7654;DHT22;3869;48.406;10.774;2023-12-28T11:34:28;9.40;98.20
7654;DHT22;3869;48.406;10.774;2023-12-28T11:37:00;9.50;98.20
7654;DHT22;3869;48.406;10.774;2023-12-28T11:39:32;9.50;98.20
7654;DHT22;3869;48.406;10.774;2023-12-28T11:42:01;9.50;98.10
7654;DHT22;3869;48.406;10.774;2023-12-28T11:44:37;9.50;98.20
7654;DHT22;3869;48.406;10.774;2023-12-28T11:47:11;9.50;98.20
7654;DHT22;3869;48.406;10.774;2023-12-28T11:49:39;9.50;98.50
7654;DHT22;3869;48.406;10.774;2023-12-28T11:52:08;9.50;98.20
7654;DHT22;3869;48.406;10.774;2023-12-28T11:54:37;9.60;98.50
7654;DHT22;3869;48.406;10.774;2023-12-28T11:57:05;9.60;98.40
7654;DHT22;3869;48.406;10.774;2023-12-28T11:59:35;9.60;98.40
7654;DHT22;3869;48.406;10.774;2023-12-28T12:02:05;9.50;98.20
7654;DHT22;3869;48.406;10.774;2023-12-28T12:04:34;9.60;98.30
7654;DHT22;3869;48.406;10.774;2023-12-28T12:07:03;9.60;98.10
7654;DHT22;3869;48.406;10.774;2023-12-28T12:09:32;9.60;98.20
7654;DHT22;3869;48.406;10.774;2023-12-28T12:12:01;9.70;98.30
7654;DHT22;3869;48.406;10.774;2023-12-28T12:14:30;9.70;98.20
7654;DHT22;3869;48.406;10.774;2023-12-28T12:17:00;9.70;98.20
7654;DHT22;3869;48.406;10.774;2023-12-28T12:19:28;9.70;98.10
7654;DHT22;3869;48.406;10.774;2023-12-28T12:21:57;9.70;98.00
7654;DHT22;3869;48.406;10.774;2023-12-28T12:24:25;9.80;98.00
7654;DHT22;3869;48.406;10.774;2023-12-28T12:26:53;9.80;97.90
7654;DHT22;3869;48.406;10.774;2023-12-28T12:29:21;9.80;97.90
7654;DHT22;3869;48.406;10.774;2023-12-28T12:31:56;9.80;97.90
7654;DHT22;3869;48.406;10.774;2023-12-28T12:34:25;9.80;97.90
7654;DHT22;3869;48.406;10.774;2023-12-28T12:36:54;9.80;98.20
7654;DHT22;3869;48.406;10.774;2023-12-28T12:39:23;9.90;98.00
7654;DHT22;3869;48.406;10.774;2023-12-28T12:41:52;9.90;97.80
7654;DHT22;3869;48.406;10.774;2023-12-28T12:44:20;9.90;97.80
7654;DHT22;3869;48.406;10.774;2023-12-28T12:46:55;9.90;97.80
7654;DHT22;3869;48.406;10.774;2023-12-28T12:49:23;9.90;97.70
7654;DHT22;3869;48.406;10.774;2023-12-28T12:51:54;9.90;97.80
7654;DHT22;3869;48.406;10.774;2023-12-28T12:54:23;10.00;97.40
7654;DHT22;3869;48.406;10.774;2023-12-28T12:56:51;10.00;97.40
7654;DHT22;3869;48.406;10.774;2023-12-28T12:59:19;10.00;97.30
7654;DHT22;3869;48.406;10.774;2023-12-28T13:01:48;10.00;97.30
7654;DHT22;3869;48.406;10.774;2023-12-28T13:04:16;10.00;97.30
7654;DHT22;3869;48.406;10.774;2023-12-28T13:06:44;10.00;97.50
7654;DHT22;3869;48.406;10.774;2023-12-28T13:09:14;10.00;97.50
7654;DHT22;3869;48.406;10.774;2023-12-28T13:11:42;10.00;97.70
7654;DHT22;3869;48.406;10.774;2023-12-28T13:14:10;10.10;97.50
7654;DHT22;3869;48.406;10.774;2023-12-28T13:16:38;10.10;97.90
7654;DHT22;3869;48.406;10.774;2023-12-28T13:19:06;10.10;97.50
7654;DHT22;3869;48.406;10.774;2023-12-28T13:21:35;10.10;97.60
7654;DHT22;3869;48.406;10.774;2023-12-28T13:24:03;10.20;97.60
7654;DHT22;3869;48.406;10.774;2023-12-28T13:26:33;10.10;97.50
7654;DHT22;3869;48.406;10.774;2023-12-28T13:29:01;10.20;97.50
7654;DHT22;3869;48.406;10.774;2023-12-28T13:31:32;10.10;97.40
7654;DHT22;3869;48.406;10.774;2023-12-28T13:34:00;10.10;97.40
7654;DHT22;3869;48.406;10.774;2023-12-28T13:36:28;10.10;97.40
7654;DHT22;3869;48.406;10.774;2023-12-28T13:38:57;10.20;97.50
7654;DHT22;3869;48.406;10.774;2023-12-28T13:41:25;10.20;97.70
7654;DHT22;3869;48.406;10.774;2023-12-28T13:43:55;10.20;97.70
7654;DHT22;3869;48.406;10.774;2023-12-28T13:46:28;10.20;97.70
7654;DHT22;3869;48.406;10.774;2023-12-28T13:48:56;10.20;97.70
7654;DHT22;3869;48.406;10.774;2023-12-28T13:51:25;10.10;97.70
7654;DHT22;3869;48.406;10.774;2023-12-28T13:53:53;10.10;97.70
7654;DHT22;3869;48.406;10.774;2023-12-28T13:56:21;10.10;97.90
7654;DHT22;3869;48.406;10.774;2023-12-28T13:58:49;10.10;97.90
7654;DHT22;3869;48.406;10.774;2023-12-28T14:01:18;10.10;98.10
7654;DHT22;3869;48.406;10.774;2023-12-28T14:03:47;10.00;98.10
7654;DHT22;3869;48.406;10.774;2023-12-28T14:06:18;10.00;98.20
7654;DHT22;3869;48.406;10.774;2023-12-28T14:08:47;10.00;98.10
7654;DHT22;3869;48.406;10.774;2023-12-28T14:11:15;10.00;98.10
7654;DHT22;3869;48.406;10.774;2023-12-28T14:13:43;10.00;98.10
7654;DHT22;3869;48.406;10.774;2023-12-28T14:16:11;10.00;98.20
7654;DHT22;3869;48.406;10.774;2023-12-28T14:18:40;9.90;98.70
7654;DHT22;3869;48.406;10.774;2023-12-28T14:21:09;9.90;98.70
7654;DHT22;3869;48.406;10.774;2023-12-28T14:23:39;10.00;98.30
7654;DHT22;3869;48.406;10.774;2023-12-28T14:26:12;9.90;98.70
7654;DHT22;3869;48.406;10.774;2023-12-28T14:28:41;9.90;98.90
7654;DHT22;3869;48.406;10.774;2023-12-28T14:31:09;9.90;98.90
7654;DHT22;3869;48.406;10.774;2023-12-28T14:33:40;9.90;98.80
7654;DHT22;3869;48.406;10.774;2023-12-28T14:36:16;9.90;98.90
7654;DHT22;3869;48.406;10.774;2023-12-28T14:38:49;9.80;98.80
7654;DHT22;3869;48.406;10.774;2023-12-28T14:41:17;9.90;99.20
7654;DHT22;3869;48.406;10.774;2023-12-28T14:43:45;9.80;99.00
7654;DHT22;3869;48.406;10.774;2023-12-28T14:46:13;9.80;99.10
7654;DHT22;3869;48.406;10.774;2023-12-28T14:48:43;9.80;99.40
7654;DHT22;3869;48.406;10.774;2023-12-28T14:51:11;9.70;99.30
7654;DHT22;3869;48.406;10.774;2023-12-28T14:53:39;9.70;99.30
7654;DHT22;3869;48.406;10.774;2023-12-28T14:56:07;9.70;99.30
7654;DHT22;3869;48.406;10.774;2023-12-28T14:58:35;9.70;99.30
7654;DHT22;3869;48.406;10.774;2023-12-28T15:01:03;9.60;99.20
7654;DHT22;3869;48.406;10.774;2023-12-28T15:03:31;9.60;99.20
7654;DHT22;3869;48.406;10.774;2023-12-28T15:06:00;9.60;99.30
7654;DHT22;3869;48.406;10.774;2023-12-28T15:08:29;9.60;99.40
7654;DHT22;3869;48.406;10.774;2023-12-28T15:10:57;9.60;99.40
7654;DHT22;3869;48.406;10.774;2023-12-28T15:13:26;9.50;99.40
7654;DHT22;3869;48.406;10.774;2023-12-28T15:15:55;9.50;99.50
7654;DHT22;3869;48.406;10.774;2023-12-28T15:18:23;9.50;99.50
7654;DHT22;3869;48.406;10.774;2023-12-28T15:20:52;9.40;99.40
7654;DHT22;3869;48.406;10.774;2023-12-28T15:23:22;9.40;99.40
7654;DHT22;3869;48.406;10.774;2023-12-28T15:25:50;9.40;99.50
7654;DHT22;3869;48.406;10.774;2023-12-28T15:28:18;9.40;99.50
7654;DHT22;3869;48.406;10.774;2023-12-28T15:30:47;9.30;99.40
7654;DHT22;3869;48.406;10.774;2023-12-28T15:33:15;9.30;99.30
7654;DHT22;3869;48.406;10.774;2023-12-28T15:35:43;9.30;99.50
7654;DHT22;3869;48.406;10.774;2023-12-28T15:38:11;9.30;99.40
7654;DHT22;3869;48.406;10.774;2023-12-28T15:40:43;9.30;99.80
7654;DHT22;3869;48.406;10.774;2023-12-28T15:43:11;9.30;99.30
7654;DHT22;3869;48.406;10.774;2023-12-28T15:45:40;9.20;99.30
7654;DHT22;3869;48.406;10.774;2023-12-28T15:48:08;9.20;99.40
7654;DHT22;3869;48.406;10.774;2023-12-28T15:50:36;9.20;99.30
7654;DHT22;3869;48.406;10.774;2023-12-28T15:53:04;9.20;99.40
7654;DHT22;3869;48.406;10.774;2023-12-28T15:55:32;9.20;99.40
7654;DHT22;3869;48.406;10.774;2023-12-28T15:58:01;9.20;99.40
7654;DHT22;3869;48.406;10.774;2023-12-28T16:00:30;9.20;99.40
7654;DHT22;3869;48.406;10.774;2023-12-28T16:02:58;9.20;99.50
7654;DHT22;3869;48.406;10.774;2023-12-28T16:05:26;9.20;99.30
7654;DHT22;3869;48.406;10.774;2023-12-28T16:07:54;9.20;99.50
7654;DHT22;3869;48.406;10.774;2023-12-28T16:10:23;9.10;99.50
7654;DHT22;3869;48.406;10.774;2023-12-28T16:12:51;9.20;99.50